Hauptseite
METAR-TAF:

METAR-TAF

Flughäfen :

RAF Odiham

Odiham, England

Breite: 51-14N, Länge: 000-57W, Höhe: 123 m

Beobachtung

Neuester Wetterbericht von vor 44 Minuten, um 14:50 UTC
Wind 7 kt aus Süd
Temperatur 25°C
Luftfeuchtigkeit 54%
Luftdruck 1015 hPa
Sichtweite 10 km oder mehr

METAR: EGVO 271450Z AUTO 17007KT 9999 FEW039/// 25/15 Q1015

Zeit: 16:34 (15:34 UTC)


TAF: fehlend

Wetterbeobachtungen und Prognosen von mehr als 4000 Flughäfen (METAR und TAF Bericht).

Die verfügbaren Stationen werden durch gelbe und rote Markierungen auf der Karte dargestellt.

Führen Sie die Maus auf sie, um den Namen der Station zu sehen.

Darauf klicken, um die Beobachtung von Wetterbeobachtungen und Prognosen zu sehen.

Um die Karte zu ändern : klicken Sie auf den grünen Tasten mit einem schwarzen Kreuz Zum Vergrößern, auf den grünen Button mit einem Gedankenstrich zu verkleinern, oder auf die grünen Pfeile für benachbarte Karten.


METAR-TAF: